Time;durP1;ratioP1;P1;durP2;ratioP2;P2;SDS_P1;SDS_P2;PMS_P1;PMS_P2;Temp;Humidity;BMP_temperature;BMP_pressure;BME280_temperature;BME280_humidity;BME280_pressure;Samples;Min_cycle;Max_cycle;Signal;HPM_P1;HPM_P2
2023/03/29 00:01:00;;;;;;;75.35;22.42;;;6.30;99.90;;;;;;5015486;28;20284;-81
2023/03/29 00:03:26;;;;;;;73.27;20.80;;;6.30;99.90;;;;;;5016901;28;20212;-81
2023/03/29 00:05:56;;;;;;;74.18;24.23;;;6.30;99.90;;;;;;5016955;28;20200;-82
2023/03/29 00:08:25;;;;;;;73.78;19.75;;;6.30;99.90;;;;;;5016693;28;20158;-81
2023/03/29 00:10:51;;;;;;;73.65;22.23;;;6.30;99.90;;;;;;5016447;28;20250;-82
2023/03/29 00:13:17;;;;;;;71.53;18.90;;;6.30;99.90;;;;;;5016699;28;20680;-81
2023/03/29 00:15:42;;;;;;;72.03;21.02;;;6.30;99.90;;;;;;5016623;28;20401;-81
2023/03/29 00:18:08;;;;;;;72.40;24.27;;;6.30;99.90;;;;;;5018407;28;20601;-81
2023/03/29 00:20:34;;;;;;;71.03;18.67;;;6.30;99.90;;;;;;5020677;28;20476;-81
2023/03/29 00:23:03;;;;;;;74.60;18.23;;;6.30;99.90;;;;;;5020174;28;20217;-79
2023/03/29 00:25:28;;;;;;;72.25;22.90;;;6.30;99.90;;;;;;5020420;28;20435;-80
2023/03/29 00:27:54;;;;;;;73.90;19.47;;;6.30;99.90;;;;;;5020768;28;20166;-79
2023/03/29 00:30:20;;;;;;;69.67;14.83;;;6.40;99.90;;;;;;5020508;28;20189;-79
2023/03/29 00:32:45;;;;;;;73.60;17.37;;;6.40;99.90;;;;;;5020781;28;20186;-80
2023/03/29 00:35:11;;;;;;;70.33;16.87;;;6.40;99.90;;;;;;5020825;28;20189;-80
2023/03/29 00:37:37;;;;;;;75.07;19.47;;;6.40;99.90;;;;;;5020411;28;20652;-79
2023/03/29 00:40:09;;;;;;;76.10;17.73;;;6.30;99.90;;;;;;5018597;28;20413;-79
2023/03/29 00:42:36;;;;;;;72.35;19.40;;;6.40;99.90;;;;;;5019819;28;20228;-79
2023/03/29 00:45:10;;;;;;;73.30;20.10;;;6.30;99.90;;;;;;5019902;28;20158;-79
2023/03/29 00:47:48;;;;;;;71.35;17.77;;;6.30;99.90;;;;;;5020334;28;20216;-79
2023/03/29 00:50:29;;;;;;;72.88;20.98;;;6.30;99.90;;;;;;5018793;28;20169;-79
2023/03/29 00:53:25;;;;;;;74.25;17.77;;;6.40;99.90;;;;;;5019875;28;20252;-79
2023/03/29 00:55:57;;;;;;;72.05;17.10;;;6.30;99.90;;;;;;5020210;28;20165;-80
2023/03/29 00:58:29;;;;;;;72.13;18.58;;;6.30;99.90;;;;;;5019408;28;20150;-79
2023/03/29 01:01:07;;;;;;;71.68;18.95;;;6.30;99.90;;;;;;5019770;28;20201;-79
2023/03/29 01:03:44;;;;;;;73.18;20.48;;;6.30;99.90;;;;;;5019578;28;20185;-79
2023/03/29 01:06:13;;;;;;;72.38;20.67;;;6.30;99.90;;;;;;5019416;28;20150;-79
2023/03/29 01:08:49;;;;;;;73.20;19.52;;;6.20;99.90;;;;;;5019661;28;20169;-79
2023/03/29 01:11:38;;;;;;;72.97;19.27;;;6.30;99.90;;;;;;5019789;28;20181;-79
2023/03/29 01:14:09;;;;;;;72.25;19.05;;;6.30;99.90;;;;;;5019780;28;20182;-79
2023/03/29 01:16:38;;;;;;;71.13;16.58;;;6.30;99.90;;;;;;5017924;28;20169;-79
2023/03/29 01:19:07;;;;;;;73.78;17.58;;;6.30;99.90;;;;;;5019513;28;20164;-79
2023/03/29 01:21:40;;;;;;;71.47;18.75;;;6.30;99.90;;;;;;5019248;28;20198;-79
2023/03/29 01:24:08;;;;;;;72.10;20.85;;;6.30;99.90;;;;;;5019410;28;20541;-79
2023/03/29 01:27:04;;;;;;;76.55;21.17;;;6.30;99.90;;;;;;5019197;28;20165;-79
2023/03/29 01:29:44;;;;;;;71.43;17.42;;;6.20;99.90;;;;;;5018741;28;20174;-79
2023/03/29 01:32:37;;;;;;;73.72;20.55;;;6.30;99.90;;;;;;5019390;28;20150;-79
2023/03/29 01:35:11;;;;;;;75.30;22.48;;;6.30;99.90;;;;;;5019360;28;20182;-80
2023/03/29 01:38:09;;;;;;;73.65;22.55;;;6.20;99.90;;;;;;5019396;28;20261;-79
2023/03/29 01:40:35;;;;;;;73.28;21.10;;;6.30;99.90;;;;;;5015527;28;20193;-79
2023/03/29 01:43:26;;;;;;;72.22;21.13;;;6.30;99.90;;;;;;5018468;28;20200;-79
2023/03/29 01:46:19;;;;;;;73.10;23.08;;;6.30;99.90;;;;;;5018953;28;20166;-79
2023/03/29 01:49:02;;;;;;;77.22;20.08;;;6.30;99.90;;;;;;5017735;28;20169;-79
2023/03/29 01:51:35;;;;;;;73.25;18.45;;;6.30;99.90;;;;;;5019053;28;20143;-79
2023/03/29 01:54:06;;;;;;;72.63;18.92;;;6.30;99.90;;;;;;5018519;28;20229;-79
2023/03/29 01:56:37;;;;;;;74.60;21.48;;;6.40;99.90;;;;;;5018753;28;20622;-79
2023/03/29 01:59:12;;;;;;;74.55;21.73;;;6.40;99.90;;;;;;5018669;28;20528;-79
2023/03/29 02:01:49;;;;;;;72.22;18.90;;;6.40;99.90;;;;;;5018344;28;20228;-79
2023/03/29 02:04:21;;;;;;;71.57;19.42;;;6.40;99.90;;;;;;5018784;28;20235;-79
2023/03/29 02:06:49;;;;;;;71.30;19.05;;;6.50;99.90;;;;;;5019105;28;20158;-79
2023/03/29 02:09:15;;;;;;;72.07;20.35;;;6.40;99.90;;;;;;5018661;28;20257;-80
2023/03/29 02:11:44;;;;;;;71.63;20.77;;;6.40;99.90;;;;;;5018481;28;20185;-80
2023/03/29 02:14:09;;;;;;;73.30;21.35;;;6.40;99.90;;;;;;5017244;28;20200;-79
2023/03/29 02:16:37;;;;;;;72.83;21.87;;;6.40;99.90;;;;;;5018468;28;20170;-79
2023/03/29 02:19:04;;;;;;;77.85;18.52;;;6.40;99.90;;;;;;5018321;28;20189;-80
2023/03/29 02:21:33;;;;;;;74.07;19.17;;;6.40;99.90;;;;;;5018208;28;20216;-79
2023/03/29 02:24:02;;;;;;;75.50;17.77;;;6.40;99.90;;;;;;5017501;28;20429;-79
2023/03/29 02:26:28;;;;;;;70.78;16.42;;;6.40;99.90;;;;;;5018118;28;20162;-80
2023/03/29 02:28:54;;;;;;;70.00;16.77;;;6.50;99.90;;;;;;5018291;28;20194;-79
2023/03/29 02:31:32;;;;;;;72.38;17.08;;;6.50;99.90;;;;;;5018010;28;20460;-79
2023/03/29 02:34:01;;;;;;;71.10;19.80;;;6.50;99.90;;;;;;5016663;28;20253;-80
2023/03/29 02:36:27;;;;;;;73.72;16.30;;;6.50;99.90;;;;;;5018365;28;20211;-80
2023/03/29 02:38:54;;;;;;;72.07;15.00;;;6.60;99.90;;;;;;5017672;28;20538;-79
2023/03/29 02:41:22;;;;;;;70.63;16.08;;;6.60;99.90;;;;;;5015748;28;20198;-80
2023/03/29 02:43:49;;;;;;;71.68;14.77;;;6.60;99.90;;;;;;5018357;28;20740;-79
2023/03/29 02:46:17;;;;;;;74.70;17.20;;;6.60;99.90;;;;;;5016412;28;20169;-79
2023/03/29 02:48:47;;;;;;;70.97;16.13;;;6.60;99.90;;;;;;5017383;28;20166;-80
2023/03/29 02:51:20;;;;;;;70.70;16.92;;;6.60;99.90;;;;;;5017961;28;20225;-80
2023/03/29 02:53:52;;;;;;;73.93;15.27;;;6.60;99.90;;;;;;5017528;28;20208;-80
2023/03/29 02:56:19;;;;;;;69.88;15.60;;;6.60;99.90;;;;;;5017781;28;20146;-80
2023/03/29 02:58:45;;;;;;;72.38;15.38;;;6.60;99.90;;;;;;5017497;28;20165;-80
2023/03/29 03:01:11;;;;;;;71.28;16.45;;;6.70;99.90;;;;;;5017437;28;20186;-80
2023/03/29 03:03:37;;;;;;;69.50;13.93;;;6.70;99.90;;;;;;5017509;28;20616;-80
2023/03/29 03:06:03;;;;;;;70.47;14.27;;;6.70;99.90;;;;;;5016304;28;20193;-80
2023/03/29 03:08:29;;;;;;;71.60;17.42;;;6.70;99.90;;;;;;5016175;28;20408;-80
2023/03/29 03:10:55;;;;;;;72.93;15.33;;;6.60;99.90;;;;;;5017552;28;20220;-80
2023/03/29 03:13:22;;;;;;;70.10;11.63;;;6.70;99.90;;;;;;5017591;28;20421;-80
2023/03/29 03:15:48;;;;;;;70.28;11.95;;;6.70;99.90;;;;;;5015609;28;20174;-80
2023/03/29 03:18:15;;;;;;;69.60;12.13;;;6.80;99.90;;;;;;5015949;28;20174;-80
2023/03/29 03:20:41;;;;;;;69.90;13.75;;;6.70;99.90;;;;;;5017370;28;20436;-80
2023/03/29 03:23:08;;;;;;;69.70;13.93;;;6.80;99.90;;;;;;5017534;28;20736;-80
2023/03/29 03:25:34;;;;;;;71.53;13.32;;;6.80;99.90;;;;;;5017123;28;20409;-80
2023/03/29 03:28:01;;;;;;;71.05;15.15;;;6.90;99.90;;;;;;5017315;28;20162;-80
2023/03/29 03:30:27;;;;;;;69.30;13.20;;;6.80;99.90;;;;;;5017362;28;20161;-80
2023/03/29 03:32:56;;;;;;;70.18;12.93;;;6.80;99.90;;;;;;5017050;28;20181;-79
2023/03/29 03:35:22;;;;;;;71.85;16.27;;;6.80;99.90;;;;;;5016923;28;20162;-80
2023/03/29 03:37:48;;;;;;;71.78;16.58;;;6.80;99.90;;;;;;5015687;28;20173;-80
2023/03/29 03:40:13;;;;;;;72.10;15.37;;;6.80;99.90;;;;;;5017089;28;20166;-80
2023/03/29 03:42:40;;;;;;;71.60;13.97;;;6.80;99.90;;;;;;5016448;28;20558;-80
2023/03/29 03:45:07;;;;;;;75.07;13.90;;;6.90;99.90;;;;;;5017182;28;20162;-80
2023/03/29 03:47:34;;;;;;;71.57;14.98;;;6.80;99.90;;;;;;5015694;28;20177;-80
2023/03/29 03:50:07;;;;;;;72.03;17.00;;;6.80;99.90;;;;;;5015589;28;20193;-80
2023/03/29 03:52:33;;;;;;;73.13;17.48;;;6.80;99.90;;;;;;5016809;28;20181;-80
2023/03/29 03:54:58;;;;;;;70.27;15.00;;;6.80;99.90;;;;;;5017071;28;20216;-80
2023/03/29 03:57:24;;;;;;;70.60;15.33;;;6.90;99.90;;;;;;5017176;28;20570;-79
2023/03/29 03:59:51;;;;;;;72.15;16.20;;;6.90;99.90;;;;;;5016697;28;20216;-80
2023/03/29 04:02:19;;;;;;;73.88;16.60;;;6.90;99.90;;;;;;5016767;28;20217;-80
2023/03/29 04:04:45;;;;;;;73.18;17.90;;;6.90;99.90;;;;;;5016629;28;20178;-80
2023/03/29 04:07:11;;;;;;;72.93;15.25;;;6.90;99.90;;;;;;5016774;28;20588;-79
2023/03/29 04:09:37;;;;;;;70.50;14.10;;;7.00;99.90;;;;;;5016466;28;20208;-80
2023/03/29 04:12:03;;;;;;;70.27;14.93;;;7.00;99.90;;;;;;5015675;28;20286;-80
2023/03/29 04:14:30;;;;;;;70.55;14.65;;;7.00;99.90;;;;;;5016946;28;20831;-79
2023/03/29 04:16:56;;;;;;;74.13;17.77;;;7.00;99.90;;;;;;5016533;28;20264;-80
2023/03/29 04:19:21;;;;;;;77.63;16.07;;;7.00;99.90;;;;;;5016420;28;20249;-80
2023/03/29 04:21:48;;;;;;;71.20;16.97;;;6.90;99.90;;;;;;5015188;28;20190;-80
2023/03/29 04:24:16;;;;;;;71.60;15.30;;;6.90;99.90;;;;;;5015259;28;20190;-80
2023/03/29 04:26:42;;;;;;;71.65;15.38;;;6.90;99.90;;;;;;5016592;28;20166;-80
2023/03/29 04:29:08;;;;;;;72.97;17.40;;;7.00;99.90;;;;;;5017587;28;20163;-80
2023/03/29 04:31:34;;;;;;;71.10;15.00;;;7.00;99.90;;;;;;5015470;28;20580;-80
2023/03/29 04:34:00;;;;;;;73.67;15.53;;;7.00;99.90;;;;;;5016464;28;20216;-79
2023/03/29 04:36:25;;;;;;;71.03;16.30;;;7.00;99.90;;;;;;5016611;28;20189;-80
2023/03/29 04:38:51;;;;;;;75.30;21.30;;;7.00;99.90;;;;;;5016480;28;20185;-79
2023/03/29 04:41:18;;;;;;;73.70;17.10;;;7.00;99.90;;;;;;5015353;28;20731;-79
2023/03/29 04:43:47;;;;;;;73.75;17.35;;;7.00;99.90;;;;;;5016503;28;20182;-79
2023/03/29 04:46:13;;;;;;;74.35;19.40;;;7.00;99.90;;;;;;5015358;28;20641;-80
2023/03/29 04:48:39;;;;;;;74.28;22.02;;;6.90;99.90;;;;;;5015193;28;20189;-80
2023/03/29 04:51:05;;;;;;;76.00;21.40;;;7.00;99.90;;;;;;5016349;28;20162;-80
2023/03/29 04:53:31;;;;;;;72.00;22.30;;;7.00;99.90;;;;;;5016159;28;20490;-80
2023/03/29 04:55:58;;;;;;;74.53;25.23;;;7.00;99.90;;;;;;5014928;28;20849;-80
2023/03/29 04:58:25;;;;;;;76.35;24.27;;;6.90;99.90;;;;;;5016317;28;20193;-79
2023/03/29 05:01:30;;;;;;;76.90;22.92;;;7.00;99.90;;;;;;5016711;28;20182;-80
2023/03/29 05:04:18;;;;;;;76.72;21.52;;;7.00;99.90;;;;;;5014706;28;20201;-79
2023/03/29 05:07:03;;;;;;;73.13;22.17;;;7.00;99.90;;;;;;5015715;28;20625;-80
2023/03/29 05:09:56;;;;;;;73.93;19.35;;;7.00;99.90;;;;;;5015414;28;20174;-80
2023/03/29 05:12:27;;;;;;;76.00;22.23;;;7.00;99.90;;;;;;5017811;28;20580;-80
2023/03/29 05:14:52;;;;;;;72.88;21.58;;;7.00;99.90;;;;;;5124175;23;20505;-79
2023/03/29 05:17:19;;;;;;;71.90;18.50;;;7.00;99.90;;;;;;5086915;23;20225;-80
2023/03/29 05:19:44;;;;;;;73.15;16.27;;;7.00;99.90;;;;;;5017540;28;20986;-80
2023/03/29 05:22:10;;;;;;;69.67;15.10;;;7.10;99.90;;;;;;5017594;28;20193;-80
2023/03/29 05:24:36;;;;;;;69.63;15.60;;;7.10;99.90;;;;;;5019010;28;20409;-79
2023/03/29 05:27:02;;;;;;;70.40;17.33;;;7.10;99.90;;;;;;5017291;28;20581;-79
2023/03/29 05:29:28;;;;;;;71.63;14.40;;;7.00;99.90;;;;;;5017176;28;20503;-79
2023/03/29 05:31:54;;;;;;;71.37;16.10;;;7.00;99.90;;;;;;5019215;28;20197;-79
2023/03/29 05:34:19;;;;;;;70.40;15.23;;;7.10;99.90;;;;;;5018405;28;20425;-79
2023/03/29 05:36:48;;;;;;;72.90;15.50;;;7.10;99.90;;;;;;5017479;28;20181;-79
2023/03/29 05:39:16;;;;;;;69.97;15.63;;;7.10;99.90;;;;;;5018952;28;20166;-79
2023/03/29 05:41:42;;;;;;;73.00;17.92;;;7.10;99.90;;;;;;5017221;28;20225;-79
2023/03/29 05:44:10;;;;;;;79.97;17.23;;;7.10;99.90;;;;;;5016973;28;20186;-79
2023/03/29 05:46:38;;;;;;;71.00;17.05;;;7.10;99.90;;;;;;5018370;28;20217;-79
2023/03/29 05:49:05;;;;;;;70.18;16.63;;;7.10;99.90;;;;;;5017929;28;20204;-80
2023/03/29 05:51:32;;;;;;;72.03;17.98;;;7.10;99.90;;;;;;5018340;28;20169;-79
2023/03/29 05:53:59;;;;;;;73.25;17.30;;;7.10;99.90;;;;;;5091587;22;20570;-82
2023/03/29 05:56:25;;;;;;;71.50;15.18;;;7.20;99.90;;;;;;5019754;28;20170;-82
2023/03/29 05:58:54;;;;;;;72.78;14.20;;;7.20;99.90;;;;;;5019571;28;20192;-82
2023/03/29 06:01:21;;;;;;;72.88;13.13;;;7.20;99.90;;;;;;5019174;28;20248;-82
2023/03/29 06:03:47;;;;;;;70.50;12.65;;;7.20;99.90;;;;;;5020293;28;20203;-82
2023/03/29 06:06:15;;;;;;;70.43;14.98;;;7.30;99.90;;;;;;5019921;28;20161;-82
2023/03/29 06:08:40;;;;;;;70.80;16.50;;;7.30;99.90;;;;;;5019690;28;20162;-82
2023/03/29 06:11:09;;;;;;;72.50;16.33;;;7.30;99.90;;;;;;5020092;28;20697;-83
2023/03/29 06:13:37;;;;;;;70.45;13.40;;;7.30;99.90;;;;;;5020041;28;20417;-82
2023/03/29 06:16:04;;;;;;;70.50;15.35;;;7.30;99.90;;;;;;5018692;28;20166;-82
2023/03/29 06:18:31;;;;;;;72.85;16.58;;;7.30;99.90;;;;;;5020501;28;20246;-82
2023/03/29 06:20:57;;;;;;;69.95;13.38;;;7.30;99.90;;;;;;5019574;28;20202;-82
2023/03/29 06:23:23;;;;;;;68.97;13.60;;;7.40;99.90;;;;;;5019863;28;20200;-82
2023/03/29 06:25:50;;;;;;;73.18;14.40;;;7.40;99.90;;;;;;5019994;28;20170;-82
2023/03/29 06:28:17;;;;;;;71.00;15.07;;;7.30;99.90;;;;;;5020197;28;20169;-82
2023/03/29 06:30:44;;;;;;;69.82;14.00;;;7.40;99.90;;;;;;5018126;28;20166;-82
2023/03/29 06:33:10;;;;;;;71.03;12.93;;;7.40;99.90;;;;;;5019464;28;20184;-83
2023/03/29 06:35:36;;;;;;;70.00;14.57;;;7.40;99.90;;;;;;5020513;28;20197;-83
2023/03/29 06:38:03;;;;;;;73.88;14.77;;;7.50;99.90;;;;;;5019748;28;20400;-82
2023/03/29 06:40:30;;;;;;;73.63;14.77;;;7.50;99.90;;;;;;5018515;28;20255;-82
2023/03/29 06:42:56;;;;;;;71.32;15.50;;;7.60;99.90;;;;;;5018616;28;20296;-82
2023/03/29 06:45:26;;;;;;;70.82;17.42;;;7.70;99.90;;;;;;5017945;28;20220;-82
2023/03/29 06:47:52;;;;;;;69.70;12.73;;;7.80;99.90;;;;;;5019245;28;20170;-82
2023/03/29 06:50:18;;;;;;;69.70;13.07;;;7.80;99.90;;;;;;5019571;28;20238;-82
2023/03/29 06:52:45;;;;;;;72.72;15.18;;;7.80;99.90;;;;;;5017235;28;20225;-81
2023/03/29 06:55:11;;;;;;;74.72;13.70;;;8.00;99.90;;;;;;5019314;28;20153;-82
2023/03/29 06:57:38;;;;;;;69.75;12.85;;;8.00;99.90;;;;;;5018824;28;20530;-82
2023/03/29 07:00:18;;;;;;;70.63;12.27;;;8.10;99.90;;;;;;5017605;28;20172;-82
2023/03/29 07:02:48;;;;;;;74.28;12.00;;;8.20;99.90;;;;;;5017577;28;20193;-83
2023/03/29 07:05:14;;;;;;;72.95;13.85;;;8.30;99.90;;;;;;5017862;28;20177;-83
2023/03/29 07:07:52;;;;;;;71.85;13.35;;;8.30;99.90;;;;;;5017691;28;20519;-83
2023/03/29 07:10:20;;;;;;;76.70;14.05;;;8.40;99.90;;;;;;5018175;28;20200;-83
2023/03/29 07:12:47;;;;;;;69.05;9.68;;;8.40;99.90;;;;;;5018268;28;20203;-83
2023/03/29 07:15:16;;;;;;;68.90;7.75;;;8.40;99.90;;;;;;5019352;28;20151;-83
2023/03/29 07:17:41;;;;;;;74.32;8.45;;;8.50;99.90;;;;;;5018834;28;20166;-82
2023/03/29 07:20:12;;;;;;;70.87;9.30;;;8.40;99.90;;;;;;5018648;28;20197;-83
2023/03/29 07:22:43;;;;;;;74.75;9.30;;;8.40;99.90;;;;;;5018373;28;20255;-82
2023/03/29 07:25:11;;;;;;;75.00;13.15;;;8.30;99.90;;;;;;5018849;28;20154;-82
2023/03/29 07:27:38;;;;;;;70.82;12.60;;;8.30;99.90;;;;;;5018347;28;20158;-82
2023/03/29 07:30:09;;;;;;;87.28;14.73;;;8.30;99.90;;;;;;5018096;28;20170;-82
2023/03/29 07:32:38;;;;;;;75.38;14.52;;;8.40;99.90;;;;;;5018693;28;20189;-82
2023/03/29 07:35:05;;;;;;;71.45;13.02;;;8.50;99.90;;;;;;5018159;28;20202;-82
2023/03/29 07:37:33;;;;;;;70.40;12.05;;;8.60;99.90;;;;;;5017813;28;20526;-82
2023/03/29 07:40:00;;;;;;;70.70;11.40;;;8.60;99.90;;;;;;5018071;28;20606;-82
2023/03/29 07:42:26;;;;;;;72.65;10.38;;;8.70;99.90;;;;;;5018277;28;20201;-82
2023/03/29 07:44:53;;;;;;;69.65;9.15;;;8.80;99.00;;;;;;5017109;28;20297;-82
2023/03/29 07:47:19;;;;;;;72.43;8.18;;;8.90;97.30;;;;;;5016976;28;20252;-83
2023/03/29 07:49:45;;;;;;;73.40;9.97;;;8.90;95.90;;;;;;5018632;28;20193;-82
2023/03/29 07:52:11;;;;;;;67.70;7.57;;;9.00;96.40;;;;;;5018192;28;20416;-82
2023/03/29 07:54:37;;;;;;;71.20;8.37;;;9.10;95.70;;;;;;5018683;28;20466;-82
2023/03/29 07:57:03;;;;;;;70.07;7.97;;;9.20;96.70;;;;;;5018747;28;20433;-82
2023/03/29 07:59:29;;;;;;;69.78;8.38;;;9.30;93.80;;;;;;5017841;28;20173;-82
2023/03/29 08:01:55;;;;;;;68.27;6.90;;;9.30;92.70;;;;;;5017502;28;20191;-82
2023/03/29 08:04:21;;;;;;;69.75;8.80;;;9.30;93.10;;;;;;5018198;28;20420;-82
2023/03/29 08:06:47;;;;;;;69.25;8.43;;;9.40;94.30;;;;;;5018810;28;20177;-82
2023/03/29 08:09:13;;;;;;;72.25;8.27;;;9.40;94.50;;;;;;5018043;28;20158;-82
2023/03/29 08:11:39;;;;;;;70.00;8.33;;;9.60;93.80;;;;;;5017109;28;20197;-83
2023/03/29 08:14:06;;;;;;;68.60;6.53;;;9.60;90.50;;;;;;5018748;28;20196;-82
2023/03/29 08:16:31;;;;;;;78.97;7.95;;;9.70;90.50;;;;;;5017118;28;20792;-82
2023/03/29 08:18:58;;;;;;;68.67;6.60;;;9.80;88.70;;;;;;5018395;28;20264;-82
2023/03/29 08:21:24;;;;;;;68.55;7.18;;;10.00;90.30;;;;;;5000278;28;20483;-83
2023/03/29 08:23:50;;;;;;;67.72;6.57;;;10.10;89.80;;;;;;5018352;28;20694;-83
2023/03/29 08:26:16;;;;;;;71.22;7.10;;;10.30;89.70;;;;;;5018561;28;20166;-82
2023/03/29 08:28:42;;;;;;;70.40;7.40;;;10.30;79.50;;;;;;5018403;28;20186;-82
2023/03/29 08:31:09;;;;;;;71.40;6.93;;;10.30;80.60;;;;;;5017293;28;20665;-82
2023/03/29 08:33:35;;;;;;;70.60;6.30;;;10.30;89.30;;;;;;5016394;28;20197;-82
2023/03/29 08:36:01;;;;;;;70.13;6.57;;;10.30;81.00;;;;;;5017870;28;20561;-82
2023/03/29 08:38:28;;;;;;;68.87;6.57;;;10.30;84.30;;;;;;5016209;28;20173;-82
2023/03/29 08:40:53;;;;;;;74.30;6.53;;;10.20;88.00;;;;;;5021376;28;20827;-82
2023/03/29 08:43:42;;;;;;;70.97;8.53;;;10.30;88.20;;;;;;5021578;28;20182;-82
2023/03/29 08:46:25;;;;;;;70.65;6.78;;;10.30;90.20;;;;;;5011335;28;20204;-82
2023/03/29 08:48:57;;;;;;;67.75;6.53;;;10.30;91.20;;;;;;5020649;28;20158;-82
2023/03/29 08:51:31;;;;;;;71.50;6.95;;;10.40;91.10;;;;;;5020870;28;20158;-82
2023/03/29 08:54:17;;;;;;;76.05;6.97;;;10.40;92.50;;;;;;5019113;28;20688;-82
2023/03/29 08:56:45;;;;;;;67.38;6.75;;;10.40;93.50;;;;;;5019584;28;20197;-82
2023/03/29 08:59:21;;;;;;;68.90;6.97;;;10.40;91.80;;;;;;5020240;28;20150;-82
2023/03/29 09:01:50;;;;;;;74.53;6.78;;;10.40;92.20;;;;;;5020450;28;20597;-82
2023/03/29 09:04:22;;;;;;;69.57;6.65;;;10.40;91.10;;;;;;5020424;28;20182;-83
2023/03/29 09:06:48;;;;;;;67.40;6.43;;;10.40;90.40;;;;;;5021587;28;20181;-83
2023/03/29 09:09:24;;;;;;;67.60;7.07;;;10.40;93.40;;;;;;5021201;28;20525;-83
2023/03/29 09:12:05;;;;;;;70.93;7.45;;;10.40;85.20;;;;;;5021102;28;20392;-82
2023/03/29 09:14:40;;;;;;;69.03;6.35;;;10.40;92.80;;;;;;5021016;28;20162;-82
2023/03/29 09:17:28;;;;;;;72.32;7.32;;;10.40;91.30;;;;;;5020393;28;20162;-82
2023/03/29 09:20:08;;;;;;;70.55;8.05;;;10.40;95.80;;;;;;5021386;28;20162;-83
2023/03/29 09:22:52;;;;;;;72.05;8.13;;;10.40;97.70;;;;;;5020942;28;20607;-82
2023/03/29 09:25:28;;;;;;;71.28;7.68;;;10.50;94.20;;;;;;5020943;28;20151;-82
2023/03/29 09:28:23;;;;;;;75.80;8.55;;;10.50;99.60;;;;;;5019313;28;20168;-82
2023/03/29 09:30:55;;;;;;;69.53;7.47;;;10.50;99.70;;;;;;5019534;28;20625;-82
2023/03/29 09:33:46;;;;;;;70.65;7.53;;;10.60;98.40;;;;;;5021009;28;20189;-82
2023/03/29 09:36:31;;;;;;;71.07;8.38;;;10.50;95.30;;;;;;5020241;28;20182;-82
2023/03/29 09:38:56;;;;;;;71.35;7.68;;;10.50;97.00;;;;;;5019668;28;20200;-82
2023/03/29 09:41:34;;;;;;;69.53;7.03;;;10.50;96.20;;;;;;5020782;28;20190;-82
2023/03/29 09:44:07;;;;;;;69.15;7.03;;;10.60;96.60;;;;;;5019440;28;20186;-82
2023/03/29 09:46:43;;;;;;;68.90;7.25;;;10.70;97.00;;;;;;5018686;28;20158;-84
2023/03/29 09:49:16;;;;;;;69.15;7.07;;;10.70;97.40;;;;;;5021121;28;20150;-82
2023/03/29 09:51:45;;;;;;;70.75;7.43;;;10.80;97.70;;;;;;5019910;28;20154;-82
2023/03/29 09:54:11;;;;;;;68.47;7.07;;;10.90;98.40;;;;;;5020653;28;20205;-82
2023/03/29 09:56:38;;;;;;;68.85;7.22;;;11.00;97.30;;;;;;5020410;28;20169;-83
2023/03/29 09:59:05;;;;;;;68.50;7.40;;;11.20;95.50;;;;;;5020489;28;20234;-84
2023/03/29 10:01:40;;;;;;;68.03;6.97;;;11.30;93.00;;;;;;5020440;28;20195;-83
2023/03/29 10:04:08;;;;;;;74.05;7.57;;;11.40;91.80;;;;;;5019277;28;20185;-83
2023/03/29 10:06:35;;;;;;;69.30;6.53;;;11.50;94.40;;;;;;5020340;28;20169;-83
2023/03/29 10:09:18;;;;;;;74.90;7.05;;;11.60;90.10;;;;;;5020433;28;20158;-83
2023/03/29 10:11:52;;;;;;;69.85;6.97;;;11.60;91.40;;;;;;5019980;28;20162;-83
2023/03/29 10:14:21;;;;;;;70.30;6.40;;;11.70;92.30;;;;;;5020050;28;20178;-83
2023/03/29 10:16:54;;;;;;;70.20;7.20;;;11.70;91.30;;;;;;5020905;28;20673;-83
2023/03/29 10:19:34;;;;;;;70.03;6.55;;;11.70;93.00;;;;;;5021165;28;20209;-83
2023/03/29 10:22:06;;;;;;;68.60;7.15;;;11.90;95.60;;;;;;5018398;28;20186;-83
2023/03/29 10:24:32;;;;;;;68.85;5.75;;;12.00;91.70;;;;;;5018439;28;20177;-83
2023/03/29 10:27:09;;;;;;;69.63;5.87;;;12.30;92.80;;;;;;5018441;28;20166;-84
2023/03/29 10:29:41;;;;;;;68.65;5.60;;;12.50;84.30;;;;;;5018590;28;20395;-84
2023/03/29 10:32:33;;;;;;;68.07;5.53;;;12.50;67.80;;;;;;5019761;28;20513;-85
2023/03/29 10:35:24;;;;;;;67.72;5.18;;;12.70;68.80;;;;;;5021102;28;20218;-85
2023/03/29 10:37:54;;;;;;;68.47;5.50;;;12.90;66.20;;;;;;5020949;28;20236;-85
2023/03/29 10:40:46;;;;;;;68.72;5.32;;;13.20;65.50;;;;;;5021253;28;20565;-85
2023/03/29 10:43:19;;;;;;;69.95;6.93;;;13.40;52.90;;;;;;5017073;28;20256;-86
2023/03/29 10:45:55;;;;;;;69.43;7.15;;;13.50;42.20;;;;;;5022239;28;20563;-86
2023/03/29 10:48:29;;;;;;;70.35;6.30;;;13.60;39.90;;;;;;5021943;28;20154;-85
2023/03/29 10:50:58;;;;;;;72.78;7.10;;;13.70;38.50;;;;;;5022037;28;20241;-86
2023/03/29 10:53:27;;;;;;;72.27;5.77;;;13.90;42.00;;;;;;5019514;28;20216;-85
2023/03/29 10:56:13;;;;;;;73.25;6.55;;;13.70;32.80;;;;;;5021588;28;20437;-85
2023/03/29 10:59:10;;;;;;;72.55;5.75;;;13.90;35.90;;;;;;5022214;28;20160;-85
2023/03/29 11:01:55;;;;;;;70.78;6.30;;;13.80;32.40;;;;;;5014823;28;20620;-85
2023/03/29 11:04:45;;;;;;;66.50;5.45;;;13.80;38.50;;;;;;5019504;28;20684;-84
2023/03/29 11:07:59;;;;;;;71.15;7.07;;;13.70;37.60;;;;;;5019650;28;20190;-86
2023/03/29 11:10:44;;;;;;;73.07;6.95;;;13.60;48.50;;;;;;4940775;29;20179;-84
2023/03/29 11:13:22;;;;;;;68.85;6.30;;;13.60;50.70;;;;;;4940445;29;20219;-84
2023/03/29 11:16:09;;;;;;;68.70;6.30;;;13.70;52.40;;;;;;4996516;28;20204;-84
2023/03/29 11:18:35;;;;;;;69.75;5.55;;;13.70;52.70;;;;;;5019823;28;20193;-84
2023/03/29 11:21:23;;;;;;;75.03;8.20;;;13.70;45.30;;;;;;5019315;28;20194;-84
2023/03/29 11:24:21;;;;;;;69.18;5.95;;;13.90;60.50;;;;;;5020663;28;20229;-84
2023/03/29 11:27:06;;;;;;;70.90;6.50;;;14.20;52.50;;;;;;5019901;28;20155;-84
2023/03/29 11:30:09;;;;;;;70.13;5.97;;;14.50;55.60;;;;;;5019506;28;20408;-84
2023/03/29 11:32:47;;;;;;;68.87;5.37;;;14.80;41.00;;;;;;5020498;28;20982;-84
2023/03/29 11:35:44;;;;;;;67.70;5.40;;;15.10;30.90;;;;;;5021448;28;20389;-84
2023/03/29 11:38:36;;;;;;;68.57;6.33;;;15.50;39.40;;;;;;5020673;28;20400;-84
2023/03/29 11:41:24;;;;;;;72.40;5.83;;;15.70;26.20;;;;;;5018837;28;20507;-84
2023/03/29 11:44:02;;;;;;;72.07;5.20;;;15.80;32.40;;;;;;5021566;28;20520;-84
2023/03/29 11:46:32;;;;;;;65.70;4.10;;;15.90;27.90;;;;;;5021041;28;20809;-84
2023/03/29 11:49:04;;;;;;;65.97;3.37;;;15.90;15.50;;;;;;5022002;28;20377;-84
2023/03/29 11:51:42;;;;;;;66.30;4.17;;;16.00;25.60;;;;;;5021850;28;20381;-84
2023/03/29 11:54:15;;;;;;;66.77;4.00;;;16.10;23.30;;;;;;5110493;23;20508;-84
2023/03/29 11:56:49;;;;;;;70.23;4.33;;;16.00;13.20;;;;;;5027975;28;20412;-85
2023/03/29 11:59:33;;;;;;;67.57;4.03;;;16.00;16.90;;;;;;5028968;28;20431;-85
2023/03/29 12:02:26;;;;;;;64.87;3.97;;;16.00;13.10;;;;;;5029005;28;20500;-85
2023/03/29 12:04:56;;;;;;;66.37;4.63;;;16.00;12.00;;;;;;5008806;28;20378;-85
2023/03/29 12:07:31;;;;;;;69.73;4.20;;;15.70;13.00;;;;;;5009616;28;20382;-84
2023/03/29 12:10:25;;;;;;;70.53;5.20;;;15.70;16.60;;;;;;5008962;28;20384;-84
2023/03/29 12:13:00;;;;;;;67.27;4.80;;;15.70;16.20;;;;;;5006669;28;20414;-84
2023/03/29 12:15:30;;;;;;;67.30;4.63;;;15.70;13.70;;;;;;5010138;28;20386;-84
2023/03/29 12:18:21;;;;;;;67.20;4.60;;;15.80;11.10;;;;;;5011928;28;20453;-84
2023/03/29 12:20:52;;;;;;;66.07;4.43;;;15.80;14.00;;;;;;5014336;28;20453;-84
2023/03/29 12:23:18;;;;;;;66.30;4.60;;;16.00;11.60;;;;;;5012074;28;20422;-84
2023/03/29 12:26:11;;;;;;;67.67;5.13;;;16.20;11.80;;;;;;5012943;28;20452;-85
2023/03/29 12:29:07;;;;;;;69.70;4.90;;;16.40;8.50;;;;;;5011861;28;20175;-84
2023/03/29 12:31:48;;;;;;;65.97;4.40;;;16.70;7.10;;;;;;5010858;28;20386;-84
2023/03/29 12:34:31;;;;;;;67.77;4.57;;;16.80;5.10;;;;;;5009739;28;20441;-85
2023/03/29 12:37:11;;;;;;;67.60;4.37;;;17.00;1.00;;;;;;5009854;28;20473;-84
2023/03/29 12:39:38;;;;;;;68.17;3.93;;;17.20;1.00;;;;;;5010042;28;20387;-84
2023/03/29 12:42:15;;;;;;;66.67;4.03;;;17.30;1.00;;;;;;5010586;28;20863;-85
2023/03/29 12:45:01;;;;;;;66.83;4.30;;;17.20;1.00;;;;;;5009680;28;20394;-84
2023/03/29 12:47:34;;;;;;;66.37;3.50;;;17.10;1.00;;;;;;5014134;28;20399;-85
2023/03/29 12:50:00;;;;;;;67.70;3.77;;;17.20;1.00;;;;;;5009869;28;20411;-85
2023/03/29 12:52:31;;;;;;;68.83;3.97;;;17.30;1.00;;;;;;5010697;28;20435;-84
2023/03/29 12:55:00;;;;;;;68.67;4.20;;;17.30;1.00;;;;;;5011702;28;20434;-85
2023/03/29 12:57:43;;;;;;;66.97;3.13;;;17.10;1.00;;;;;;5011429;28;20473;-85
2023/03/29 13:00:18;;;;;;;68.37;3.80;;;17.10;1.00;;;;;;5010534;28;20398;-84
2023/03/29 13:02:44;;;;;;;65.97;3.63;;;16.60;1.00;;;;;;5009770;28;20460;-85